| time (UTC) | temp F | wind direction | speed MPH | gust MPH | rain 1hr in | rain 24hr in | rain mn in | humidity % | barometer mb |
| 20260831053842 | 81 | 141 | 0.0 | 0.0 | 0.00 | 0.00 | 0.00 | 55 | 1016.1 |
| 20260831053340 | 81 | 141 | 0.0 | 0.0 | 0.00 | 0.00 | 0.00 | 54 | 1016.0 |
| 20260831052840 | 82 | 141 | 0.0 | 0.0 | 0.00 | 0.00 | 0.00 | 53 | 1015.9 |
| 20260831052335 | 82 | 141 | 0.0 | 0.0 | 0.00 | 0.00 | 0.00 | 53 | 1016.0 |
| 20260831051833 | 82 | 141 | 0.0 | 0.0 | 0.00 | 0.00 | 0.00 | 53 | 1015.9 |
| 20260831051332 | 82 | 141 | 0.0 | 0.0 | 0.00 | 0.00 | 0.00 | 52 | 1015.8 |
| 20260831050826 | 82 | 141 | 0.0 | 0.0 | 0.00 | 0.00 | 0.00 | 52 | 1015.8 |
| 20260831050320 | 82 | 141 | 1.0 | 1.0 | 0.00 | 0.00 | 0.00 | 53 | 1015.9 |
| 20260831045814 | 82 | 141 | 1.0 | 1.0 | 0.00 | 0.00 | 0.00 | 52 | 1016.0 |
| 20260831045308 | 81 | 141 | 0.0 | 1.0 | 0.00 | 0.00 | 0.00 | 53 | 1015.9 |
| 20260831044804 | 81 | 141 | 0.0 | 0.0 | 0.00 | 0.00 | 0.00 | 53 | 1015.7 |
| 20260831044258 | 81 | 141 | 0.0 | 0.0 | 0.00 | 0.00 | 0.00 | 52 | 1015.9 |
| 20260831043754 | 81 | 141 | 0.0 | 0.0 | 0.00 | 0.00 | 0.00 | 53 | 1015.7 |
| 20260831043248 | 81 | 141 | 0.0 | 0.0 | 0.00 | 0.00 | 0.00 | 52 | 1015.7 |
| 20260831042743 | 81 | 141 | 0.0 | 0.0 | 0.00 | 0.00 | 0.00 | 51 | 1015.7 |
| 20260831042237 | 81 | 141 | 0.0 | 0.0 | 0.00 | 0.00 | 0.00 | 51 | 1015.8 |
| 20260831041733 | 82 | 141 | 0.0 | 0.0 | 0.00 | 0.00 | 0.00 | 51 | 1015.6 |
| 20260831041232 | 82 | 141 | 0.0 | 0.0 | 0.00 | 0.00 | 0.00 | 51 | 1015.6 |
| 20260831040727 | 82 | 141 | 0.0 | 0.0 | 0.00 | 0.00 | 0.00 | 50 | 1015.8 |
| 20260831040227 | 83 | 141 | 0.0 | 0.0 | 0.00 | 0.00 | 0.00 | 50 | 1015.8 |
| 20260831035725 | 83 | 141 | 0.0 | 0.0 | 0.00 | 0.00 | 0.00 | 49 | 1015.8 |
| 20260831035224 | 84 | 141 | 0.0 | 0.0 | 0.00 | 0.00 | 0.00 | 49 | 1015.6 |
| 20260831034723 | 84 | 141 | 0.0 | 0.0 | 0.00 | 0.00 | 0.00 | 48 | 1015.5 |
| 20260831034220 | 84 | 141 | 0.0 | 0.0 | 0.00 | 0.00 | 0.00 | 47 | 1015.6 |
| 20260831033714 | 85 | 141 | 0.0 | 0.0 | 0.00 | 0.00 | 0.00 | 46 | 1015.4 |
| 20260831033214 | 85 | 141 | 0.0 | 1.0 | 0.00 | 0.00 | 0.00 | 47 | 1015.2 |
| 20260831032709 | 85 | 141 | 1.0 | 1.0 | 0.00 | 0.00 | 0.00 | 46 | 1015.6 |
| 20260831032205 | 85 | 141 | 1.0 | 1.0 | 0.00 | 0.00 | 0.00 | 45 | 1015.6 |
| 20260831031659 | 86 | 141 | 0.0 | 1.0 | 0.00 | 0.00 | 0.00 | 46 | 1015.6 |
| 20260831031159 | 86 | 141 | 1.0 | 1.0 | 0.00 | 0.00 | 0.00 | 46 | 1015.6 |
| 20260831030658 | 86 | 141 | 1.0 | 1.0 | 0.00 | 0.00 | 0.00 | 46 | 1015.5 |
| 20260831030157 | 86 | 141 | 1.0 | 1.0 | 0.00 | 0.00 | 0.00 | 45 | 1015.3 |
| 20260831025655 | 86 | 141 | 1.0 | 1.0 | 0.00 | 0.00 | 0.00 | 45 | 1015.5 |
| 20260831025150 | 86 | 141 | 1.0 | 1.0 | 0.00 | 0.00 | 0.00 | 43 | 1015.4 |
| 20260831024648 | 86 | 141 | 0.0 | 0.0 | 0.00 | 0.00 | 0.00 | 43 | 1015.4 |
| 20260831024145 | 87 | 141 | 0.0 | 1.0 | 0.00 | 0.00 | 0.00 | 43 | 1015.3 |
| 20260831023644 | 87 | 141 | 0.0 | 0.0 | 0.00 | 0.00 | 0.00 | 42 | 1015.3 |
| 20260831023137 | 88 | 141 | 0.0 | 1.0 | 0.00 | 0.00 | 0.00 | 41 | 1015.1 |
| 20260831022633 | 88 | 141 | 1.0 | 1.0 | 0.00 | 0.00 | 0.00 | 41 | 1015.1 |
| 20260831022128 | 88 | 141 | 1.0 | 1.0 | 0.00 | 0.00 | 0.00 | 41 | 1014.9 |
| 20260831021627 | 88 | 141 | 1.0 | 1.0 | 0.00 | 0.00 | 0.00 | 40 | 1014.7 |
| 20260831021123 | 88 | 141 | 1.0 | 1.0 | 0.00 | 0.00 | 0.00 | 41 | 1014.9 |
| 20260831020618 | 88 | 141 | 1.0 | 1.0 | 0.00 | 0.00 | 0.00 | 41 | 1014.9 |
| 20260831020112 | 89 | 141 | 1.0 | 1.0 | 0.00 | 0.00 | 0.00 | 40 | 1014.8 |
| 20260831015609 | 89 | 141 | 0.0 | 1.0 | 0.00 | 0.00 | 0.00 | 40 | 1014.7 |
| 20260831015108 | 89 | 141 | 1.0 | 1.0 | 0.00 | 0.00 | 0.00 | 39 | 1014.8 |
| 20260831014603 | 90 | 141 | 1.0 | 1.0 | 0.00 | 0.00 | 0.00 | 39 | 1014.7 |
| 20260831014058 | 90 | 141 | 1.0 | 2.0 | 0.00 | 0.00 | 0.00 | 38 | 1014.5 |
| 20260831013555 | 90 | 141 | 2.0 | 2.0 | 0.00 | 0.00 | 0.00 | 38 | 1014.4 |
| 20260831013054 | 91 | 141 | 1.0 | 1.0 | 0.00 | 0.00 | 0.00 | 37 | 1014.6 |
| 20260831012554 | 91 | 141 | 1.0 | 1.0 | 0.00 | 0.00 | 0.00 | 37 | 1014.4 |
| 20260831012049 | 91 | 141 | 2.0 | 2.0 | 0.00 | 0.00 | 0.00 | 36 | 1014.4 |
| 20260831011549 | 91 | 141 | 2.0 | 2.0 | 0.00 | 0.00 | 0.00 | 36 | 1014.3 |
| 20260831011044 | 92 | 141 | 2.0 | 2.0 | 0.00 | 0.00 | 0.00 | 37 | 1014.3 |
| 20260831010539 | 92 | 140 | 1.0 | 2.0 | 0.00 | 0.00 | 0.00 | 36 | 1014.4 |
| 20260831010036 | 92 | 145 | 1.0 | 1.0 | 0.00 | 0.00 | 0.00 | 36 | 1014.2 |
| 20260831005531 | 93 | 145 | 2.0 | 2.0 | 0.00 | 0.00 | 0.00 | 35 | 1014.2 |
| 20260831005030 | 93 | 145 | 1.0 | 2.0 | 0.00 | 0.00 | 0.00 | 35 | 1014.3 |
| 20260831004527 | 94 | 145 | 2.0 | 2.0 | 0.00 | 0.00 | 0.00 | 34 | 1014.1 |
| 20260831004022 | 94 | 157 | 2.0 | 2.0 | 0.00 | 0.00 | 0.00 | 34 | 1014.3 |
| 20260831003518 | 95 | 164 | 4.0 | 5.0 | 0.00 | 0.00 | 0.00 | 33 | 1014.2 |
| 20260831003008 | 95 | 162 | 3.0 | 3.0 | 0.00 | 0.00 | 0.00 | 33 | 1014.1 |
| 20260831002506 | 96 | 158 | 5.0 | 6.0 | 0.00 | 0.00 | 0.00 | 32 | 1014.4 |
| 20260831002002 | 96 | 155 | 4.0 | 5.0 | 0.00 | 0.00 | 0.00 | 32 | 1014.1 |
| 20260831001456 | 96 | 180 | 3.0 | 5.0 | 0.00 | 0.00 | 0.00 | 31 | 1014.1 |
| 20260831000954 | 97 | 118 | 4.0 | 6.0 | 0.00 | 0.00 | 0.00 | 31 | 1014.4 |
| 20260831000449 | 97 | 196 | 7.0 | 8.0 | 0.00 | 0.00 | 0.00 | 30 | 1014.3 |
| 20260830235947 | 98 | 182 | 4.0 | 5.0 | 0.00 | 0.00 | 0.00 | 31 | 1014.3 |
| 20260830235443 | 98 | 190 | 3.0 | 3.0 | 0.00 | 0.00 | 0.00 | 31 | 1014.4 |
| 20260830234938 | 98 | 183 | 3.0 | 3.0 | 0.00 | 0.00 | 0.00 | 30 | 1014.2 |
| 20260830234433 | 98 | 164 | 4.0 | 5.0 | 0.00 | 0.00 | 0.00 | 29 | 1014.4 |
| 20260830233928 | 99 | 214 | 5.0 | 6.0 | 0.00 | 0.00 | 0.00 | 30 | 1014.1 |
| 20260830233424 | 99 | 209 | 3.0 | 3.0 | 0.00 | 0.00 | 0.00 | 29 | 1014.7 |
| 20260830232919 | 99 | 192 | 5.0 | 6.0 | 0.00 | 0.00 | 0.00 | 28 | 1014.5 |
| 20260830232415 | 99 | 218 | 7.0 | 8.0 | 0.00 | 0.00 | 0.00 | 29 | 1014.2 |
| 20260830231912 | 99 | 203 | 3.0 | 3.0 | 0.00 | 0.00 | 0.00 | 29 | 1014.3 |
| 20260830231407 | 99 | 222 | 5.0 | 6.0 | 0.00 | 0.00 | 0.00 | 29 | 1014.4 |
| 20260830230906 | 99 | 201 | 7.0 | 7.0 | 0.00 | 0.00 | 0.00 | 29 | 1014.6 |
| 20260830230402 | 99 | 218 | 8.0 | 10.0 | 0.00 | 0.00 | 0.00 | 29 | 1014.3 |
| 20260830225901 | 100 | 201 | 8.0 | 10.0 | 0.00 | 0.00 | 0.00 | 29 | 1014.5 |
| 20260830225356 | 100 | 196 | 7.0 | 8.0 | 0.00 | 0.00 | 0.00 | 29 | 1014.4 |
| 20260830224851 | 100 | 197 | 7.0 | 8.0 | 0.00 | 0.00 | 0.00 | 29 | 1014.3 |
| 20260830224350 | 100 | 212 | 5.0 | 5.0 | 0.00 | 0.00 | 0.00 | 29 | 1014.7 |
| 20260830223847 | 100 | 155 | 3.0 | 3.0 | 0.00 | 0.00 | 0.00 | 30 | 1014.7 |
| 20260830223343 | 100 | 148 | 8.0 | 9.0 | 0.00 | 0.00 | 0.00 | 28 | 1014.4 |
| 20260830222842 | 100 | 119 | 7.0 | 9.0 | 0.00 | 0.00 | 0.00 | 28 | 1014.6 |
| 20260830222337 | 100 | 203 | 7.0 | 9.0 | 0.00 | 0.00 | 0.00 | 30 | 1014.6 |
| 20260830221838 | 100 | 213 | 7.0 | 8.0 | 0.00 | 0.00 | 0.00 | 30 | 1014.5 |
| 20260830221334 | 100 | 217 | 5.0 | 7.0 | 0.00 | 0.00 | 0.00 | 30 | 1014.6 |
| 20260830220830 | 100 | 207 | 7.0 | 8.0 | 0.00 | 0.00 | 0.00 | 29 | 1014.5 |
| 20260830220329 | 100 | 168 | 6.0 | 7.0 | 0.00 | 0.00 | 0.00 | 29 | 1014.6 |
| 20260830215827 | 101 | 193 | 10.0 | 11.0 | 0.00 | 0.00 | 0.00 | 29 | 1014.7 |
| 20260830215322 | 101 | 165 | 3.0 | 5.0 | 0.00 | 0.00 | 0.00 | 31 | 1014.9 |
| 20260830214817 | 101 | 228 | 7.0 | 8.0 | 0.00 | 0.00 | 0.00 | 30 | 1014.6 |
| 20260830214312 | 101 | 184 | 5.0 | 7.0 | 0.00 | 0.00 | 0.00 | 31 | 1014.8 |
| 20260830213812 | 100 | 147 | 5.0 | 6.0 | 0.00 | 0.00 | 0.00 | 31 | 1014.8 |
| 20260830213307 | 100 | 185 | 8.0 | 9.0 | 0.00 | 0.00 | 0.00 | 31 | 1014.7 |
| 20260830212803 | 100 | 151 | 5.0 | 6.0 | 0.00 | 0.00 | 0.00 | 32 | 1014.8 |
| 20260830212258 | 99 | 95 | 5.0 | 6.0 | 0.00 | 0.00 | 0.00 | 32 | 1014.9 |
| 20260830211757 | 98 | 156 | 1.0 | 2.0 | 0.00 | 0.00 | 0.00 | 33 | 1014.8 |
| 20260830211256 | 98 | 199 | 9.0 | 10.0 | 0.00 | 0.00 | 0.00 | 32 | 1015.0 |
| 20260830210753 | 97 | 156 | 8.0 | 10.0 | 0.00 | 0.00 | 0.00 | 34 | 1014.8 |
| 20260830210252 | 98 | 186 | 7.0 | 7.0 | 0.00 | 0.00 | 0.00 | 33 | 1015.5 |
| 20260830205749 | 100 | 125 | 8.0 | 11.0 | 0.00 | 0.00 | 0.00 | 31 | 1015.0 |
| 20260830205244 | 99 | 170 | 1.0 | 2.0 | 0.00 | 0.00 | 0.00 | 32 | 1015.2 |
| 20260830204740 | 99 | 131 | 6.0 | 7.0 | 0.00 | 0.00 | 0.00 | 33 | 1015.3 |
| 20260830204238 | 98 | 106 | 4.0 | 6.0 | 0.00 | 0.00 | 0.00 | 34 | 1015.3 |
| 20260830203735 | 100 | 149 | 9.0 | 10.0 | 0.00 | 0.00 | 0.00 | 32 | 1015.6 |
| 20260830203230 | 100 | 204 | 3.0 | 3.0 | 0.00 | 0.00 | 0.00 | 32 | 1015.5 |
| 20260830202729 | 101 | 237 | 5.0 | 6.0 | 0.00 | 0.00 | 0.00 | 32 | 1015.6 |
| 20260830202225 | 100 | 174 | 12.0 | 14.0 | 0.00 | 0.00 | 0.00 | 32 | 1015.5 |
| 20260830201724 | 99 | 133 | 9.0 | 11.0 | 0.00 | 0.00 | 0.00 | 34 | 1015.9 |
| 20260830201220 | 96 | 154 | 7.0 | 8.0 | 0.00 | 0.00 | 0.00 | 36 | 1015.7 |
| 20260830200715 | 96 | 123 | 3.0 | 3.0 | 0.00 | 0.00 | 0.00 | 37 | 1015.9 |
| 20260830200214 | 97 | 134 | 5.0 | 5.0 | 0.00 | 0.00 | 0.00 | 36 | 1015.9 |
| 20260830195710 | 98 | 205 | 7.0 | 7.0 | 0.00 | 0.00 | 0.00 | 35 | 1015.9 |
| 20260830195208 | 99 | 151 | 6.0 | 8.0 | 0.00 | 0.00 | 0.00 | 35 | 1016.0 |
| 20260830194707 | 99 | 210 | 12.0 | 14.0 | 0.00 | 0.00 | 0.00 | 34 | 1015.9 |
| 20260830194202 | 100 | 168 | 9.0 | 10.0 | 0.00 | 0.00 | 0.00 | 34 | 1016.2 |
| 20260830193656 | 99 | 216 | 7.0 | 9.0 | 0.00 | 0.00 | 0.00 | 33 | 1016.3 |
| 20260830193150 | 99 | 210 | 10.0 | 13.0 | 0.00 | 0.00 | 0.00 | 33 | 1016.5 |
| 20260830192646 | 98 | 226 | 9.0 | 10.0 | 0.00 | 0.00 | 0.00 | 33 | 1016.5 |
| 20260830192141 | 100 | 253 | 9.0 | 9.0 | 0.00 | 0.00 | 0.00 | 34 | 1016.5 |
| 20260830191637 | 99 | 214 | 5.0 | 7.0 | 0.00 | 0.00 | 0.00 | 36 | 1016.6 |
| 20260830191131 | 97 | 186 | 8.0 | 10.0 | 0.00 | 0.00 | 0.00 | 36 | 1016.6 |
| 20260830190627 | 98 | 218 | 8.0 | 9.0 | 0.00 | 0.00 | 0.00 | 35 | 1016.5 |
| 20260830190121 | 98 | 202 | 7.0 | 7.0 | 0.00 | 0.00 | 0.00 | 35 | 1016.9 |
| 20260830185615 | 98 | 209 | 11.0 | 13.0 | 0.00 | 0.00 | 0.00 | 37 | 1017.0 |
| 20260830185111 | 97 | 201 | 11.0 | 11.0 | 0.00 | 0.00 | 0.00 | 38 | 1016.7 |
| 20260830184609 | 98 | 207 | 6.0 | 7.0 | 0.00 | 0.00 | 0.00 | 37 | 1016.9 |
| 20260830184104 | 98 | 216 | 3.0 | 5.0 | 0.00 | 0.00 | 0.00 | 37 | 1016.9 |
| 20260830183559 | 97 | 224 | 8.0 | 9.0 | 0.00 | 0.00 | 0.00 | 38 | 1016.9 |
| 20260830183055 | 98 | 242 | 12.0 | 13.0 | 0.00 | 0.00 | 0.00 | 37 | 1017.1 |
| 20260830182550 | 98 | 219 | 6.0 | 8.0 | 0.00 | 0.00 | 0.00 | 36 | 1017.0 |
| 20260830182046 | 98 | 194 | 6.0 | 7.0 | 0.00 | 0.00 | 0.00 | 37 | 1017.0 |
| 20260830181542 | 97 | 203 | 7.0 | 8.0 | 0.00 | 0.00 | 0.00 | 38 | 1017.3 |
| 20260830181041 | 96 | 209 | 7.0 | 8.0 | 0.00 | 0.00 | 0.00 | 37 | 1017.1 |
| 20260830180541 | 96 | 224 | 6.0 | 7.0 | 0.00 | 0.00 | 0.00 | 37 | 1017.2 |
| 20260830180040 | 97 | 234 | 8.0 | 8.0 | 0.00 | 0.00 | 0.00 | 37 | 1017.5 |
| 20260830175539 | 98 | 196 | 9.0 | 10.0 | 0.00 | 0.00 | 0.00 | 37 | 1017.6 |
| 20260830175035 | 98 | 226 | 10.0 | 13.0 | 0.00 | 0.00 | 0.00 | 38 | 1017.6 |
| 20260830174530 | 97 | 168 | 7.0 | 8.0 | 0.00 | 0.00 | 0.00 | 39 | 1017.3 |
| 20260830174025 | 95 | 185 | 5.0 | 7.0 | 0.00 | 0.00 | 0.00 | 42 | 1017.7 |
| 20260830173521 | 96 | 221 | 6.0 | 6.0 | 0.00 | 0.00 | 0.00 | 42 | 1018.0 |
| 20260830173015 | 96 | 227 | 7.0 | 9.0 | 0.00 | 0.00 | 0.00 | 42 | 1017.9 |
| 20260830172513 | 96 | 250 | 8.0 | 9.0 | 0.00 | 0.00 | 0.00 | 42 | 1018.0 |
| 20260830172008 | 95 | 196 | 9.0 | 13.0 | 0.00 | 0.00 | 0.00 | 42 | 1018.4 |
| 20260830171503 | 95 | 220 | 6.0 | 7.0 | 0.00 | 0.00 | 0.00 | 43 | 1018.0 |
| 20260830170958 | 95 | 201 | 7.0 | 8.0 | 0.00 | 0.00 | 0.00 | 43 | 1018.1 |
| 20260830170457 | 95 | 251 | 11.0 | 13.0 | 0.00 | 0.00 | 0.00 | 43 | 1018.3 |
| 20260830165956 | 95 | 216 | 9.0 | 11.0 | 0.00 | 0.00 | 0.00 | 44 | 1018.4 |
| 20260830165452 | 95 | 208 | 5.0 | 7.0 | 0.00 | 0.00 | 0.00 | 44 | 1018.4 |
| 20260830164948 | 95 | 233 | 4.0 | 5.0 | 0.00 | 0.00 | 0.00 | 43 | 1018.4 |
| 20260830164443 | 94 | 162 | 7.0 | 8.0 | 0.00 | 0.00 | 0.00 | 44 | 1018.4 |
| 20260830163940 | 94 | 232 | 9.0 | 10.0 | 0.00 | 0.00 | 0.00 | 44 | 1018.5 |
| 20260830163436 | 93 | 250 | 11.0 | 13.0 | 0.00 | 0.00 | 0.00 | 45 | 1018.4 |
| 20260830162935 | 94 | 247 | 11.0 | 11.0 | 0.00 | 0.00 | 0.00 | 46 | 1018.4 |
| 20260830162432 | 94 | 197 | 9.0 | 9.0 | 0.00 | 0.00 | 0.00 | 46 | 1018.6 |
| 20260830161931 | 93 | 210 | 4.0 | 5.0 | 0.00 | 0.00 | 0.00 | 47 | 1018.7 |
| 20260830161431 | 93 | 218 | 9.0 | 10.0 | 0.00 | 0.00 | 0.00 | 46 | 1018.6 |
| 20260830160926 | 93 | 232 | 11.0 | 11.0 | 0.00 | 0.00 | 0.00 | 47 | 1018.6 |
| 20260830160423 | 93 | 247 | 7.0 | 8.0 | 0.00 | 0.00 | 0.00 | 48 | 1018.6 |
| 20260830155917 | 92 | 258 | 8.0 | 11.0 | 0.00 | 0.00 | 0.00 | 49 | 1018.5 |
| 20260830155414 | 93 | 220 | 9.0 | 9.0 | 0.00 | 0.00 | 0.00 | 48 | 1018.4 |
| 20260830154909 | 92 | 270 | 8.0 | 10.0 | 0.00 | 0.00 | 0.00 | 50 | 1018.3 |
| 20260830154404 | 92 | 226 | 8.0 | 9.0 | 0.00 | 0.00 | 0.00 | 49 | 1018.4 |
| 20260830153901 | 91 | 226 | 10.0 | 11.0 | 0.00 | 0.00 | 0.00 | 50 | 1018.3 |
| 20260830153356 | 91 | 204 | 12.0 | 13.0 | 0.00 | 0.00 | 0.00 | 51 | 1018.4 |
| 20260830152855 | 91 | 218 | 9.0 | 10.0 | 0.00 | 0.00 | 0.00 | 52 | 1018.6 |
| 20260830152350 | 91 | 251 | 7.0 | 9.0 | 0.00 | 0.00 | 0.00 | 53 | 1018.5 |
| 20260830151844 | 90 | 220 | 7.0 | 7.0 | 0.00 | 0.00 | 0.00 | 54 | 1018.6 |
| 20260830151343 | 90 | 223 | 8.0 | 10.0 | 0.00 | 0.00 | 0.00 | 55 | 1018.5 |
| 20260830150839 | 90 | 208 | 8.0 | 9.0 | 0.00 | 0.00 | 0.00 | 55 | 1018.6 |
| 20260830150338 | 89 | 209 | 5.0 | 7.0 | 0.00 | 0.00 | 0.00 | 56 | 1018.6 |
| 20260830145833 | 89 | 233 | 8.0 | 11.0 | 0.00 | 0.00 | 0.00 | 57 | 1018.6 |
| 20260830145328 | 89 | 230 | 8.0 | 9.0 | 0.00 | 0.00 | 0.00 | 57 | 1018.7 |
| 20260830144823 | 88 | 209 | 6.0 | 7.0 | 0.00 | 0.00 | 0.00 | 58 | 1018.5 |
| 20260830144319 | 88 | 227 | 9.0 | 9.0 | 0.00 | 0.00 | 0.00 | 58 | 1018.7 |
| 20260830143815 | 87 | 227 | 9.0 | 10.0 | 0.00 | 0.00 | 0.00 | 58 | 1018.6 |
| 20260830143314 | 87 | 214 | 6.0 | 7.0 | 0.00 | 0.00 | 0.00 | 59 | 1018.7 |
| 20260830142808 | 87 | 258 | 7.0 | 8.0 | 0.00 | 0.00 | 0.00 | 59 | 1018.7 |
| 20260830142305 | 86 | 221 | 5.0 | 6.0 | 0.00 | 0.00 | 0.00 | 61 | 1018.7 |
| 20260830141759 | 86 | 201 | 6.0 | 7.0 | 0.00 | 0.00 | 0.00 | 62 | 1018.6 |
| 20260830141254 | 85 | 223 | 7.0 | 9.0 | 0.00 | 0.00 | 0.00 | 64 | 1018.7 |
| 20260830140749 | 84 | 188 | 6.0 | 7.0 | 0.00 | 0.00 | 0.00 | 65 | 1018.5 |
| 20260830140243 | 84 | 211 | 5.0 | 6.0 | 0.00 | 0.00 | 0.00 | 66 | 1019.0 |
| 20260830135738 | 83 | 195 | 5.0 | 6.0 | 0.00 | 0.00 | 0.00 | 66 | 1018.9 |
| 20260830135234 | 83 | 199 | 6.0 | 7.0 | 0.00 | 0.00 | 0.00 | 66 | 1018.8 |
| 20260830134729 | 83 | 201 | 6.0 | 7.0 | 0.00 | 0.00 | 0.00 | 67 | 1018.6 |
| 20260830134224 | 83 | 194 | 6.0 | 6.0 | 0.00 | 0.00 | 0.00 | 67 | 1018.7 |
| 20260830133720 | 82 | 205 | 6.0 | 8.0 | 0.00 | 0.00 | 0.00 | 68 | 1018.7 |
| 20260830133216 | 82 | 207 | 6.0 | 7.0 | 0.00 | 0.00 | 0.00 | 68 | 1018.8 |
| 20260830132711 | 81 | 200 | 7.0 | 9.0 | 0.00 | 0.00 | 0.00 | 68 | 1018.6 |
| 20260830132207 | 81 | 186 | 4.0 | 6.0 | 0.00 | 0.00 | 0.00 | 68 | 1018.8 |
| 20260830131705 | 81 | 181 | 7.0 | 8.0 | 0.00 | 0.00 | 0.00 | 68 | 1018.5 |
| 20260830131206 | 80 | 158 | 4.0 | 5.0 | 0.00 | 0.00 | 0.00 | 68 | 1018.4 |
| 20260830130701 | 80 | 188 | 5.0 | 6.0 | 0.00 | 0.00 | 0.00 | 68 | 1018.4 |
| 20260830130200 | 79 | 174 | 3.0 | 5.0 | 0.00 | 0.00 | 0.00 | 68 | 1018.4 |
| 20260830125654 | 79 | 189 | 4.0 | 5.0 | 0.00 | 0.00 | 0.00 | 68 | 1018.2 |
| 20260830125149 | 78 | 178 | 5.0 | 5.0 | 0.00 | 0.00 | 0.00 | 69 | 1018.1 |
| 20260830124647 | 78 | 186 | 4.0 | 5.0 | 0.00 | 0.00 | 0.00 | 70 | 1018.2 |
| 20260830124143 | 77 | 197 | 5.0 | 6.0 | 0.00 | 0.00 | 0.00 | 69 | 1018.0 |
| 20260830123640 | 77 | 180 | 3.0 | 3.0 | 0.00 | 0.00 | 0.00 | 70 | 1018.2 |
| 20260830123135 | 77 | 172 | 3.0 | 3.0 | 0.00 | 0.00 | 0.00 | 71 | 1018.1 |
| 20260830122632 | 76 | 175 | 3.0 | 3.0 | 0.00 | 0.00 | 0.00 | 71 | 1018.0 |
| 20260830122128 | 76 | 163 | 2.0 | 2.0 | 0.00 | 0.00 | 0.00 | 71 | 1017.8 |
| 20260830121624 | 76 | 163 | 1.0 | 1.0 | 0.00 | 0.00 | 0.00 | 71 | 1018.0 |
| 20260830121123 | 76 | 160 | 1.0 | 1.0 | 0.00 | 0.00 | 0.00 | 71 | 1018.0 |
| 20260830120618 | 76 | 161 | 1.0 | 1.0 | 0.00 | 0.00 | 0.00 | 72 | 1017.7 |
| 20260830120114 | 76 | 159 | 2.0 | 2.0 | 0.00 | 0.00 | 0.00 | 71 | 1017.5 |
| 20260830115610 | 76 | 154 | 1.0 | 1.0 | 0.00 | 0.00 | 0.00 | 70 | 1017.5 |
| 20260830115105 | 76 | 153 | 1.0 | 1.0 | 0.00 | 0.00 | 0.00 | 70 | 1017.5 |
| 20260830114602 | 76 | 153 | 1.0 | 1.0 | 0.00 | 0.00 | 0.00 | 70 | 1017.6 |
| 20260830114101 | 76 | 153 | 0.0 | 0.0 | 0.00 | 0.00 | 0.00 | 70 | 1017.3 |
| 20260830113557 | 76 | 153 | 0.0 | 0.0 | 0.00 | 0.00 | 0.00 | 70 | 1017.5 |
| 20260830113052 | 76 | 153 | 0.0 | 0.0 | 0.00 | 0.00 | 0.00 | 69 | 1017.2 |
| 20260830112548 | 76 | 153 | 0.0 | 0.0 | 0.00 | 0.00 | 0.00 | 68 | 1017.2 |
| 20260830112044 | 76 | 153 | 0.0 | 0.0 | 0.00 | 0.00 | 0.00 | 68 | 1017.3 |
| 20260830111539 | 76 | 153 | 0.0 | 0.0 | 0.00 | 0.00 | 0.00 | 68 | 1017.1 |
| 20260830111036 | 76 | 153 | 0.0 | 0.0 | 0.00 | 0.00 | 0.00 | 68 | 1017.1 |
| 20260830110535 | 76 | 153 | 1.0 | 1.0 | 0.00 | 0.00 | 0.00 | 68 | 1017.1 |
| 20260830110030 | 76 | 153 | 1.0 | 1.0 | 0.00 | 0.00 | 0.00 | 67 | 1016.8 |
| 20260830105525 | 77 | 148 | 1.0 | 1.0 | 0.00 | 0.00 | 0.00 | 67 | 1017.0 |
| 20260830105021 | 77 | 144 | 1.0 | 1.0 | 0.00 | 0.00 | 0.00 | 66 | 1017.0 |
| 20260830104518 | 77 | 145 | 2.0 | 2.0 | 0.00 | 0.00 | 0.00 | 65 | 1016.9 |
| 20260830104014 | 77 | 148 | 2.0 | 2.0 | 0.00 | 0.00 | 0.00 | 65 | 1016.9 |
| 20260830103509 | 77 | 149 | 2.0 | 2.0 | 0.00 | 0.00 | 0.00 | 65 | 1016.8 |
| 20260830103007 | 77 | 135 | 3.0 | 3.0 | 0.00 | 0.00 | 0.00 | 64 | 1016.9 |
| 20260830102502 | 77 | 133 | 1.0 | 2.0 | 0.00 | 0.00 | 0.00 | 63 | 1017.0 |
| 20260830101958 | 78 | 133 | 1.0 | 2.0 | 0.00 | 0.00 | 0.00 | 63 | 1017.0 |
| 20260830101453 | 78 | 140 | 1.0 | 2.0 | 0.00 | 0.00 | 0.00 | 63 | 1016.6 |
| 20260830100952 | 78 | 118 | 3.0 | 3.0 | 0.00 | 0.00 | 0.00 | 62 | 1016.9 |
| 20260830100447 | 78 | 139 | 1.0 | 1.0 | 0.00 | 0.00 | 0.00 | 62 | 1016.9 |
| 20260830095945 | 78 | 145 | 2.0 | 3.0 | 0.00 | 0.00 | 0.00 | 62 | 1016.8 |
| 20260830095441 | 78 | 144 | 2.0 | 2.0 | 0.00 | 0.00 | 0.00 | 61 | 1017.1 |
| 20260830094937 | 79 | 128 | 1.0 | 1.0 | 0.00 | 0.00 | 0.00 | 60 | 1016.7 |
| 20260830094433 | 79 | 143 | 2.0 | 2.0 | 0.00 | 0.00 | 0.00 | 60 | 1016.9 |
| 20260830093929 | 79 | 129 | 2.0 | 2.0 | 0.00 | 0.00 | 0.00 | 59 | 1016.9 |
| 20260830093424 | 79 | 128 | 3.0 | 3.0 | 0.00 | 0.00 | 0.00 | 59 | 1016.7 |
| 20260830092919 | 79 | 132 | 3.0 | 5.0 | 0.00 | 0.00 | 0.00 | 58 | 1016.7 |
| 20260830092415 | 79 | 125 | 4.0 | 5.0 | 0.00 | 0.00 | 0.00 | 58 | 1016.9 |
| 20260830091912 | 79 | 130 | 2.0 | 2.0 | 0.00 | 0.00 | 0.00 | 58 | 1016.7 |
| 20260830091411 | 79 | 128 | 2.0 | 2.0 | 0.00 | 0.00 | 0.00 | 58 | 1016.9 |
| 20260830090909 | 79 | 126 | 4.0 | 5.0 | 0.00 | 0.00 | 0.00 | 58 | 1016.7 |
| 20260830090406 | 79 | 139 | 3.0 | 3.0 | 0.00 | 0.00 | 0.00 | 58 | 1016.8 |
| 20260830085900 | 79 | 115 | 3.0 | 3.0 | 0.00 | 0.00 | 0.00 | 58 | 1016.9 |
| 20260830085355 | 79 | 130 | 5.0 | 6.0 | 0.00 | 0.00 | 0.00 | 58 | 1017.0 |
| 20260830084851 | 80 | 116 | 3.0 | 5.0 | 0.00 | 0.00 | 0.00 | 57 | 1016.8 |
| 20260830084346 | 80 | 113 | 2.0 | 2.0 | 0.00 | 0.00 | 0.00 | 57 | 1017.0 |
| 20260830083841 | 80 | 140 | 3.0 | 5.0 | 0.00 | 0.00 | 0.00 | 57 | 1016.7 |
| 20260830083337 | 80 | 108 | 3.0 | 3.0 | 0.00 | 0.00 | 0.00 | 56 | 1016.8 |
| 20260830082837 | 80 | 116 | 2.0 | 2.0 | 0.00 | 0.00 | 0.00 | 56 | 1017.0 |
| 20260830082331 | 80 | 118 | 3.0 | 3.0 | 0.00 | 0.00 | 0.00 | 56 | 1016.9 |
| 20260830081826 | 80 | 110 | 4.0 | 5.0 | 0.00 | 0.00 | 0.00 | 55 | 1016.9 |
| 20260830081320 | 81 | 114 | 3.0 | 3.0 | 0.00 | 0.00 | 0.00 | 54 | 1016.8 |
| 20260830080815 | 81 | 110 | 3.0 | 3.0 | 0.00 | 0.00 | 0.00 | 54 | 1016.9 |
| 20260830080312 | 81 | 123 | 4.0 | 5.0 | 0.00 | 0.00 | 0.00 | 54 | 1016.8 |
| 20260830075811 | 81 | 129 | 4.0 | 5.0 | 0.00 | 0.00 | 0.00 | 53 | 1017.0 |
| 20260830075307 | 81 | 133 | 3.0 | 3.0 | 0.00 | 0.00 | 0.00 | 53 | 1016.8 |
| 20260830074801 | 82 | 126 | 4.0 | 6.0 | 0.00 | 0.00 | 0.00 | 52 | 1017.0 |
| 20260830074257 | 82 | 132 | 3.0 | 3.0 | 0.00 | 0.00 | 0.00 | 52 | 1017.1 |
| 20260830073753 | 82 | 117 | 3.0 | 3.0 | 0.00 | 0.00 | 0.00 | 52 | 1016.9 |
| 20260830073248 | 82 | 155 | 4.0 | 7.0 | 0.00 | 0.00 | 0.00 | 52 | 1017.1 |
| 20260830072743 | 82 | 134 | 5.0 | 6.0 | 0.00 | 0.00 | 0.00 | 52 | 1017.1 |
| 20260830072238 | 82 | 113 | 4.0 | 5.0 | 0.00 | 0.00 | 0.00 | 52 | 1017.0 |
| 20260830071733 | 82 | 97 | 4.0 | 7.0 | 0.00 | 0.00 | 0.00 | 52 | 1017.3 |
| 20260830071232 | 82 | 112 | 2.0 | 3.0 | 0.00 | 0.00 | 0.00 | 51 | 1017.4 |
| 20260830070726 | 82 | 135 | 5.0 | 6.0 | 0.00 | 0.00 | 0.00 | 51 | 1017.4 |
| 20260830070225 | 82 | 132 | 5.0 | 7.0 | 0.00 | 0.00 | 0.00 | 52 | 1017.2 |
| 20260830065724 | 81 | 135 | 5.0 | 6.0 | 0.00 | 0.00 | 0.00 | 53 | 1017.1 |
| 20260830065219 | 81 | 136 | 3.0 | 3.0 | 0.00 | 0.00 | 0.00 | 54 | 1017.3 |
| 20260830064717 | 80 | 120 | 2.0 | 2.0 | 0.00 | 0.00 | 0.00 | 55 | 1017.2 |
| 20260830064213 | 80 | 116 | 2.0 | 2.0 | 0.00 | 0.00 | 0.00 | 55 | 1017.2 |
| 20260830063708 | 80 | 108 | 3.0 | 3.0 | 0.00 | 0.00 | 0.00 | 56 | 1017.2 |
| 20260830063207 | 81 | 96 | 2.0 | 2.0 | 0.00 | 0.00 | 0.00 | 55 | 1017.2 |
| 20260830062702 | 81 | 106 | 1.0 | 2.0 | 0.00 | 0.00 | 0.00 | 55 | 1017.0 |
| 20260830062157 | 81 | 97 | 1.0 | 1.0 | 0.00 | 0.00 | 0.00 | 55 | 1017.0 |
| 20260830061656 | 81 | 94 | 1.0 | 2.0 | 0.00 | 0.00 | 0.00 | 55 | 1017.2 |
| 20260830061152 | 81 | 111 | 2.0 | 2.0 | 0.00 | 0.00 | 0.00 | 54 | 1016.8 |
| 20260830060649 | 82 | 105 | 3.0 | 3.0 | 0.00 | 0.00 | 0.00 | 54 | 1017.0 |
| 20260830060145 | 82 | 116 | 2.0 | 2.0 | 0.00 | 0.00 | 0.00 | 53 | 1017.1 |
| 20260830055640 | 82 | 114 | 2.0 | 2.0 | 0.00 | 0.00 | 0.00 | 52 | 1017.3 |
| 20260830055137 | 82 | 114 | 2.0 | 2.0 | 0.00 | 0.00 | 0.00 | 52 | 1016.9 |
| 20260830054631 | 83 | 123 | 2.0 | 3.0 | 0.00 | 0.00 | 0.00 | 51 | 1017.4 |
| 20260830054126 | 83 | 125 | 2.0 | 2.0 | 0.00 | 0.00 | 0.00 | 51 | 1017.1 |